sensor_id;sensor_type;location;lat;lon;timestamp;P1;durP1;ratioP1;P2;durP2;ratioP2
21591;SDS011;10958;50.892;3.992;2023-06-14T00:01:36;6.88;;;5.40;;
21591;SDS011;10958;50.892;3.992;2023-06-14T00:04:03;10.15;;;5.45;;
21591;SDS011;10958;50.892;3.992;2023-06-14T00:06:33;10.63;;;5.70;;
21591;SDS011;10958;50.892;3.992;2023-06-14T00:08:59;7.28;;;5.80;;
21591;SDS011;10958;50.892;3.992;2023-06-14T00:11:25;9.55;;;6.13;;
21591;SDS011;10958;50.892;3.992;2023-06-14T00:13:52;9.73;;;5.63;;
21591;SDS011;10958;50.892;3.992;2023-06-14T00:16:18;7.93;;;5.57;;
21591;SDS011;10958;50.892;3.992;2023-06-14T00:18:44;12.48;;;5.50;;
21591;SDS011;10958;50.892;3.992;2023-06-14T00:21:12;7.13;;;6.05;;
21591;SDS011;10958;50.892;3.992;2023-06-14T00:23:39;9.50;;;5.60;;
21591;SDS011;10958;50.892;3.992;2023-06-14T00:26:05;7.28;;;5.47;;
21591;SDS011;10958;50.892;3.992;2023-06-14T00:28:30;8.50;;;5.97;;
21591;SDS011;10958;50.892;3.992;2023-06-14T00:30:56;8.95;;;5.75;;
21591;SDS011;10958;50.892;3.992;2023-06-14T00:33:24;9.20;;;6.25;;
21591;SDS011;10958;50.892;3.992;2023-06-14T00:35:50;8.93;;;5.60;;
21591;SDS011;10958;50.892;3.992;2023-06-14T00:38:18;10.53;;;6.07;;
21591;SDS011;10958;50.892;3.992;2023-06-14T00:40:47;10.45;;;6.10;;
21591;SDS011;10958;50.892;3.992;2023-06-14T00:43:15;8.38;;;6.10;;
21591;SDS011;10958;50.892;3.992;2023-06-14T00:45:40;8.32;;;5.80;;
21591;SDS011;10958;50.892;3.992;2023-06-14T00:48:06;9.18;;;6.05;;
21591;SDS011;10958;50.892;3.992;2023-06-14T00:50:34;9.18;;;6.28;;
21591;SDS011;10958;50.892;3.992;2023-06-14T00:53:01;12.75;;;7.00;;
21591;SDS011;10958;50.892;3.992;2023-06-14T00:55:28;10.43;;;6.10;;
21591;SDS011;10958;50.892;3.992;2023-06-14T00:57:55;9.15;;;6.38;;
21591;SDS011;10958;50.892;3.992;2023-06-14T01:00:22;9.90;;;6.38;;
21591;SDS011;10958;50.892;3.992;2023-06-14T01:02:48;10.95;;;7.32;;
21591;SDS011;10958;50.892;3.992;2023-06-14T01:05:14;9.45;;;6.72;;
21591;SDS011;10958;50.892;3.992;2023-06-14T01:13:57;10.25;;;6.82;;
21591;SDS011;10958;50.892;3.992;2023-06-14T01:16:27;11.40;;;6.45;;
21591;SDS011;10958;50.892;3.992;2023-06-14T01:18:54;10.75;;;6.40;;
21591;SDS011;10958;50.892;3.992;2023-06-14T01:21:25;11.55;;;6.43;;
21591;SDS011;10958;50.892;3.992;2023-06-14T01:23:52;8.57;;;6.55;;
21591;SDS011;10958;50.892;3.992;2023-06-14T01:26:19;11.90;;;6.65;;
21591;SDS011;10958;50.892;3.992;2023-06-14T01:28:49;10.43;;;7.18;;
21591;SDS011;10958;50.892;3.992;2023-06-14T01:31:23;9.75;;;6.97;;
21591;SDS011;10958;50.892;3.992;2023-06-14T01:33:52;12.13;;;6.63;;
21591;SDS011;10958;50.892;3.992;2023-06-14T01:36:19;10.13;;;6.38;;
21591;SDS011;10958;50.892;3.992;2023-06-14T01:38:46;11.15;;;6.65;;
21591;SDS011;10958;50.892;3.992;2023-06-14T01:41:16;10.27;;;6.78;;
21591;SDS011;10958;50.892;3.992;2023-06-14T01:43:43;10.20;;;7.00;;
21591;SDS011;10958;50.892;3.992;2023-06-14T01:46:10;8.40;;;6.88;;
21591;SDS011;10958;50.892;3.992;2023-06-14T01:48:38;10.32;;;6.63;;
21591;SDS011;10958;50.892;3.992;2023-06-14T01:51:04;11.77;;;6.40;;
21591;SDS011;10958;50.892;3.992;2023-06-14T01:53:30;8.27;;;6.68;;
21591;SDS011;10958;50.892;3.992;2023-06-14T01:55:58;9.02;;;6.65;;
21591;SDS011;10958;50.892;3.992;2023-06-14T01:58:24;7.43;;;6.28;;
21591;SDS011;10958;50.892;3.992;2023-06-14T02:00:49;17.65;;;7.22;;
21591;SDS011;10958;50.892;3.992;2023-06-14T02:03:16;8.23;;;6.65;;
21591;SDS011;10958;50.892;3.992;2023-06-14T02:05:42;8.60;;;6.63;;
21591;SDS011;10958;50.892;3.992;2023-06-14T02:08:10;10.23;;;6.47;;
21591;SDS011;10958;50.892;3.992;2023-06-14T02:10:39;11.68;;;7.15;;
21591;SDS011;10958;50.892;3.992;2023-06-14T02:13:04;14.85;;;7.07;;
21591;SDS011;10958;50.892;3.992;2023-06-14T02:15:34;8.15;;;7.10;;
21591;SDS011;10958;50.892;3.992;2023-06-14T02:18:03;8.73;;;6.70;;
21591;SDS011;10958;50.892;3.992;2023-06-14T02:20:32;12.43;;;6.10;;
21591;SDS011;10958;50.892;3.992;2023-06-14T02:22:58;12.05;;;6.85;;
21591;SDS011;10958;50.892;3.992;2023-06-14T02:25:24;10.20;;;6.80;;
21591;SDS011;10958;50.892;3.992;2023-06-14T02:27:52;9.50;;;6.75;;
21591;SDS011;10958;50.892;3.992;2023-06-14T02:30:19;8.07;;;6.45;;
21591;SDS011;10958;50.892;3.992;2023-06-14T02:32:45;13.27;;;7.10;;
21591;SDS011;10958;50.892;3.992;2023-06-14T02:35:11;9.77;;;6.68;;
21591;SDS011;10958;50.892;3.992;2023-06-14T02:37:36;10.77;;;6.85;;
21591;SDS011;10958;50.892;3.992;2023-06-14T02:40:02;10.05;;;6.55;;
21591;SDS011;10958;50.892;3.992;2023-06-14T02:42:28;10.95;;;6.65;;
21591;SDS011;10958;50.892;3.992;2023-06-14T02:44:54;12.30;;;6.95;;
21591;SDS011;10958;50.892;3.992;2023-06-14T02:47:25;9.88;;;7.15;;
21591;SDS011;10958;50.892;3.992;2023-06-14T02:49:51;12.15;;;6.63;;
21591;SDS011;10958;50.892;3.992;2023-06-14T02:52:16;15.32;;;7.32;;
21591;SDS011;10958;50.892;3.992;2023-06-14T02:54:42;14.63;;;7.15;;
21591;SDS011;10958;50.892;3.992;2023-06-14T02:57:08;13.05;;;7.30;;
21591;SDS011;10958;50.892;3.992;2023-06-14T02:59:34;12.13;;;7.20;;
21591;SDS011;10958;50.892;3.992;2023-06-14T03:02:02;14.52;;;7.47;;
21591;SDS011;10958;50.892;3.992;2023-06-14T03:04:28;9.20;;;6.50;;
21591;SDS011;10958;50.892;3.992;2023-06-14T03:06:54;10.18;;;6.75;;
21591;SDS011;10958;50.892;3.992;2023-06-14T03:09:20;14.93;;;7.40;;
21591;SDS011;10958;50.892;3.992;2023-06-14T03:11:46;7.93;;;6.20;;
21591;SDS011;10958;50.892;3.992;2023-06-14T03:14:12;10.18;;;6.80;;
21591;SDS011;10958;50.892;3.992;2023-06-14T03:16:38;8.40;;;6.63;;
21591;SDS011;10958;50.892;3.992;2023-06-14T03:19:06;7.70;;;6.63;;
21591;SDS011;10958;50.892;3.992;2023-06-14T03:21:32;9.52;;;6.80;;
21591;SDS011;10958;50.892;3.992;2023-06-14T03:23:59;12.50;;;6.88;;
21591;SDS011;10958;50.892;3.992;2023-06-14T03:26:25;11.82;;;7.32;;
21591;SDS011;10958;50.892;3.992;2023-06-14T03:28:51;8.85;;;6.68;;
21591;SDS011;10958;50.892;3.992;2023-06-14T03:31:16;9.75;;;7.13;;
21591;SDS011;10958;50.892;3.992;2023-06-14T03:33:42;8.57;;;6.50;;
21591;SDS011;10958;50.892;3.992;2023-06-14T03:36:08;11.13;;;7.28;;
21591;SDS011;10958;50.892;3.992;2023-06-14T03:38:36;10.65;;;7.00;;
21591;SDS011;10958;50.892;3.992;2023-06-14T03:41:02;11.00;;;7.20;;
21591;SDS011;10958;50.892;3.992;2023-06-14T03:43:28;7.55;;;6.15;;
21591;SDS011;10958;50.892;3.992;2023-06-14T03:45:55;8.75;;;6.63;;
21591;SDS011;10958;50.892;3.992;2023-06-14T03:48:20;9.98;;;6.03;;
21591;SDS011;10958;50.892;3.992;2023-06-14T03:50:46;9.52;;;7.25;;
21591;SDS011;10958;50.892;3.992;2023-06-14T03:53:12;13.35;;;6.82;;
21591;SDS011;10958;50.892;3.992;2023-06-14T03:55:38;14.13;;;6.60;;
21591;SDS011;10958;50.892;3.992;2023-06-14T03:58:04;9.70;;;6.72;;
21591;SDS011;10958;50.892;3.992;2023-06-14T04:00:30;11.35;;;6.60;;
21591;SDS011;10958;50.892;3.992;2023-06-14T04:02:57;13.10;;;6.20;;
21591;SDS011;10958;50.892;3.992;2023-06-14T04:05:23;12.93;;;6.82;;
21591;SDS011;10958;50.892;3.992;2023-06-14T04:07:53;9.60;;;6.13;;
21591;SDS011;10958;50.892;3.992;2023-06-14T04:10:20;7.75;;;6.38;;
21591;SDS011;10958;50.892;3.992;2023-06-14T04:12:46;9.73;;;7.43;;
21591;SDS011;10958;50.892;3.992;2023-06-14T04:15:17;9.52;;;6.60;;
21591;SDS011;10958;50.892;3.992;2023-06-14T04:17:43;8.68;;;6.75;;
21591;SDS011;10958;50.892;3.992;2023-06-14T04:20:11;11.75;;;5.85;;
21591;SDS011;10958;50.892;3.992;2023-06-14T04:22:37;8.82;;;6.30;;
21591;SDS011;10958;50.892;3.992;2023-06-14T04:25:03;12.30;;;6.30;;
21591;SDS011;10958;50.892;3.992;2023-06-14T04:27:31;10.07;;;6.43;;
21591;SDS011;10958;50.892;3.992;2023-06-14T04:30:01;12.77;;;7.07;;
21591;SDS011;10958;50.892;3.992;2023-06-14T04:32:29;12.02;;;6.60;;
21591;SDS011;10958;50.892;3.992;2023-06-14T04:34:58;10.75;;;6.18;;
21591;SDS011;10958;50.892;3.992;2023-06-14T04:37:29;10.35;;;6.20;;
21591;SDS011;10958;50.892;3.992;2023-06-14T04:39:55;9.60;;;6.38;;
21591;SDS011;10958;50.892;3.992;2023-06-14T04:42:22;7.70;;;6.18;;
21591;SDS011;10958;50.892;3.992;2023-06-14T04:44:49;9.53;;;6.47;;
21591;SDS011;10958;50.892;3.992;2023-06-14T04:47:16;9.88;;;6.63;;
21591;SDS011;10958;50.892;3.992;2023-06-14T04:49:42;10.98;;;6.28;;
21591;SDS011;10958;50.892;3.992;2023-06-14T04:52:08;7.28;;;6.07;;
21591;SDS011;10958;50.892;3.992;2023-06-14T04:54:35;8.48;;;6.43;;
21591;SDS011;10958;50.892;3.992;2023-06-14T04:57:03;9.38;;;6.20;;
21591;SDS011;10958;50.892;3.992;2023-06-14T04:59:30;6.90;;;6.20;;
21591;SDS011;10958;50.892;3.992;2023-06-14T05:02:00;11.02;;;6.78;;
21591;SDS011;10958;50.892;3.992;2023-06-14T05:04:27;9.27;;;6.43;;
21591;SDS011;10958;50.892;3.992;2023-06-14T05:06:53;9.63;;;6.88;;
21591;SDS011;10958;50.892;3.992;2023-06-14T05:09:22;13.77;;;6.32;;
21591;SDS011;10958;50.892;3.992;2023-06-14T05:11:48;15.40;;;6.50;;
21591;SDS011;10958;50.892;3.992;2023-06-14T05:14:16;11.47;;;7.00;;
21591;SDS011;10958;50.892;3.992;2023-06-14T05:16:45;11.35;;;6.35;;
21591;SDS011;10958;50.892;3.992;2023-06-14T05:19:11;9.23;;;6.47;;
21591;SDS011;10958;50.892;3.992;2023-06-14T05:21:37;9.35;;;6.63;;
21591;SDS011;10958;50.892;3.992;2023-06-14T05:24:03;9.68;;;6.70;;
21591;SDS011;10958;50.892;3.992;2023-06-14T05:26:32;11.93;;;6.13;;
21591;SDS011;10958;50.892;3.992;2023-06-14T05:28:58;9.88;;;6.85;;
21591;SDS011;10958;50.892;3.992;2023-06-14T05:31:26;13.48;;;6.47;;
21591;SDS011;10958;50.892;3.992;2023-06-14T05:33:53;9.85;;;6.45;;
21591;SDS011;10958;50.892;3.992;2023-06-14T05:36:20;10.18;;;6.40;;
21591;SDS011;10958;50.892;3.992;2023-06-14T05:38:49;9.65;;;6.55;;
21591;SDS011;10958;50.892;3.992;2023-06-14T05:41:22;10.27;;;6.43;;
21591;SDS011;10958;50.892;3.992;2023-06-14T05:46:17;13.02;;;7.53;;
21591;SDS011;10958;50.892;3.992;2023-06-14T05:48:49;7.60;;;6.40;;
21591;SDS011;10958;50.892;3.992;2023-06-14T05:51:18;13.90;;;6.72;;
21591;SDS011;10958;50.892;3.992;2023-06-14T05:56:14;12.90;;;6.55;;
21591;SDS011;10958;50.892;3.992;2023-06-14T05:58:41;10.25;;;6.40;;
21591;SDS011;10958;50.892;3.992;2023-06-14T06:01:06;13.32;;;6.15;;
21591;SDS011;10958;50.892;3.992;2023-06-14T06:03:32;11.15;;;6.95;;
21591;SDS011;10958;50.892;3.992;2023-06-14T06:05:59;10.85;;;6.68;;
21591;SDS011;10958;50.892;3.992;2023-06-14T06:08:25;12.15;;;6.72;;
21591;SDS011;10958;50.892;3.992;2023-06-14T06:10:54;12.20;;;6.60;;
21591;SDS011;10958;50.892;3.992;2023-06-14T06:13:20;10.63;;;6.70;;
21591;SDS011;10958;50.892;3.992;2023-06-14T06:15:46;11.65;;;7.35;;
21591;SDS011;10958;50.892;3.992;2023-06-14T06:18:12;8.98;;;7.22;;
21591;SDS011;10958;50.892;3.992;2023-06-14T06:20:38;11.50;;;7.20;;
21591;SDS011;10958;50.892;3.992;2023-06-14T06:23:04;14.93;;;7.43;;
21591;SDS011;10958;50.892;3.992;2023-06-14T06:25:30;11.27;;;7.53;;
21591;SDS011;10958;50.892;3.992;2023-06-14T06:27:56;12.15;;;7.30;;
21591;SDS011;10958;50.892;3.992;2023-06-14T06:30:25;13.15;;;6.53;;
21591;SDS011;10958;50.892;3.992;2023-06-14T06:32:51;9.82;;;6.97;;
21591;SDS011;10958;50.892;3.992;2023-06-14T06:35:18;12.38;;;7.38;;
21591;SDS011;10958;50.892;3.992;2023-06-14T06:40:14;13.07;;;6.50;;
21591;SDS011;10958;50.892;3.992;2023-06-14T06:42:41;12.18;;;7.15;;
21591;SDS011;10958;50.892;3.992;2023-06-14T06:45:07;15.02;;;6.53;;
21591;SDS011;10958;50.892;3.992;2023-06-14T06:47:36;9.52;;;6.13;;
21591;SDS011;10958;50.892;3.992;2023-06-14T06:50:01;9.40;;;6.20;;
21591;SDS011;10958;50.892;3.992;2023-06-14T06:52:27;10.60;;;6.25;;
21591;SDS011;10958;50.892;3.992;2023-06-14T06:54:54;14.07;;;6.93;;
21591;SDS011;10958;50.892;3.992;2023-06-14T06:57:21;12.95;;;6.35;;
21591;SDS011;10958;50.892;3.992;2023-06-14T06:59:49;11.98;;;6.65;;
21591;SDS011;10958;50.892;3.992;2023-06-14T07:02:15;9.65;;;5.72;;
21591;SDS011;10958;50.892;3.992;2023-06-14T07:04:42;12.68;;;6.70;;
21591;SDS011;10958;50.892;3.992;2023-06-14T07:07:08;11.25;;;6.18;;
21591;SDS011;10958;50.892;3.992;2023-06-14T07:09:37;10.73;;;6.18;;
21591;SDS011;10958;50.892;3.992;2023-06-14T07:12:03;10.52;;;6.25;;
21591;SDS011;10958;50.892;3.992;2023-06-14T07:14:29;6.05;;;5.40;;
21591;SDS011;10958;50.892;3.992;2023-06-14T07:16:55;13.90;;;6.22;;
21591;SDS011;10958;50.892;3.992;2023-06-14T07:19:21;9.98;;;6.22;;
21591;SDS011;10958;50.892;3.992;2023-06-14T07:21:49;10.85;;;6.13;;
21591;SDS011;10958;50.892;3.992;2023-06-14T07:24:15;6.63;;;5.38;;
21591;SDS011;10958;50.892;3.992;2023-06-14T07:26:41;7.72;;;5.45;;
21591;SDS011;10958;50.892;3.992;2023-06-14T07:29:06;11.00;;;6.35;;
21591;SDS011;10958;50.892;3.992;2023-06-14T07:31:32;11.38;;;6.22;;
21591;SDS011;10958;50.892;3.992;2023-06-14T07:33:58;9.88;;;5.75;;
21591;SDS011;10958;50.892;3.992;2023-06-14T07:36:23;10.02;;;5.80;;
21591;SDS011;10958;50.892;3.992;2023-06-14T07:38:52;12.57;;;5.47;;
21591;SDS011;10958;50.892;3.992;2023-06-14T07:41:19;11.90;;;6.35;;
21591;SDS011;10958;50.892;3.992;2023-06-14T07:43:45;9.57;;;5.50;;
21591;SDS011;10958;50.892;3.992;2023-06-14T07:46:14;8.45;;;5.80;;
21591;SDS011;10958;50.892;3.992;2023-06-14T07:48:40;6.30;;;5.13;;
21591;SDS011;10958;50.892;3.992;2023-06-14T07:51:06;8.43;;;5.72;;
21591;SDS011;10958;50.892;3.992;2023-06-14T07:53:34;10.85;;;6.00;;
21591;SDS011;10958;50.892;3.992;2023-06-14T07:55:59;8.80;;;5.13;;
21591;SDS011;10958;50.892;3.992;2023-06-14T07:58:25;11.90;;;5.35;;
21591;SDS011;10958;50.892;3.992;2023-06-14T08:00:51;9.77;;;5.65;;
21591;SDS011;10958;50.892;3.992;2023-06-14T08:03:19;8.98;;;5.97;;
21591;SDS011;10958;50.892;3.992;2023-06-14T08:05:45;12.07;;;5.70;;
21591;SDS011;10958;50.892;3.992;2023-06-14T08:08:11;10.52;;;5.57;;
21591;SDS011;10958;50.892;3.992;2023-06-14T08:10:39;5.82;;;4.93;;
21591;SDS011;10958;50.892;3.992;2023-06-14T08:13:05;17.00;;;5.70;;
21591;SDS011;10958;50.892;3.992;2023-06-14T08:15:31;8.35;;;5.70;;
21591;SDS011;10958;50.892;3.992;2023-06-14T08:20:27;8.68;;;5.72;;
21591;SDS011;10958;50.892;3.992;2023-06-14T08:22:55;14.10;;;5.05;;
21591;SDS011;10958;50.892;3.992;2023-06-14T08:25:21;6.93;;;5.07;;
21591;SDS011;10958;50.892;3.992;2023-06-14T08:27:47;10.48;;;5.65;;
21591;SDS011;10958;50.892;3.992;2023-06-14T08:30:13;9.15;;;5.00;;
21591;SDS011;10958;50.892;3.992;2023-06-14T08:32:40;6.07;;;5.43;;
21591;SDS011;10958;50.892;3.992;2023-06-14T08:35:05;6.22;;;5.00;;
21591;SDS011;10958;50.892;3.992;2023-06-14T08:37:32;13.00;;;5.57;;
21591;SDS011;10958;50.892;3.992;2023-06-14T08:39:59;6.70;;;5.15;;
21591;SDS011;10958;50.892;3.992;2023-06-14T08:42:25;7.22;;;4.88;;
21591;SDS011;10958;50.892;3.992;2023-06-14T08:44:52;6.97;;;4.88;;
21591;SDS011;10958;50.892;3.992;2023-06-14T08:47:19;5.40;;;4.53;;
21591;SDS011;10958;50.892;3.992;2023-06-14T08:49:46;7.50;;;4.50;;
21591;SDS011;10958;50.892;3.992;2023-06-14T08:52:13;8.73;;;5.20;;
21591;SDS011;10958;50.892;3.992;2023-06-14T08:54:45;7.60;;;4.70;;
21591;SDS011;10958;50.892;3.992;2023-06-14T08:57:15;6.43;;;5.13;;
21591;SDS011;10958;50.892;3.992;2023-06-14T08:59:45;11.27;;;5.32;;
21591;SDS011;10958;50.892;3.992;2023-06-14T09:02:14;7.00;;;4.60;;
21591;SDS011;10958;50.892;3.992;2023-06-14T09:04:43;7.65;;;4.97;;
21591;SDS011;10958;50.892;3.992;2023-06-14T09:07:09;13.05;;;4.70;;
21591;SDS011;10958;50.892;3.992;2023-06-14T09:09:39;7.88;;;4.80;;
21591;SDS011;10958;50.892;3.992;2023-06-14T09:12:07;8.70;;;4.93;;
21591;SDS011;10958;50.892;3.992;2023-06-14T09:14:36;12.52;;;5.13;;
21591;SDS011;10958;50.892;3.992;2023-06-14T09:17:06;10.80;;;4.90;;
21591;SDS011;10958;50.892;3.992;2023-06-14T09:19:34;8.60;;;5.30;;
21591;SDS011;10958;50.892;3.992;2023-06-14T09:22:03;7.57;;;5.05;;
21591;SDS011;10958;50.892;3.992;2023-06-14T09:24:29;5.95;;;4.45;;
21591;SDS011;10958;50.892;3.992;2023-06-14T09:26:56;5.70;;;4.38;;
21591;SDS011;10958;50.892;3.992;2023-06-14T09:29:22;8.07;;;4.97;;
21591;SDS011;10958;50.892;3.992;2023-06-14T09:31:49;7.18;;;4.40;;
21591;SDS011;10958;50.892;3.992;2023-06-14T09:34:16;5.90;;;4.68;;
21591;SDS011;10958;50.892;3.992;2023-06-14T09:36:43;6.75;;;4.45;;
21591;SDS011;10958;50.892;3.992;2023-06-14T09:39:11;7.28;;;4.55;;
21591;SDS011;10958;50.892;3.992;2023-06-14T09:41:42;7.78;;;4.97;;
21591;SDS011;10958;50.892;3.992;2023-06-14T09:44:09;8.52;;;4.63;;
21591;SDS011;10958;50.892;3.992;2023-06-14T09:46:37;8.45;;;4.57;;
21591;SDS011;10958;50.892;3.992;2023-06-14T09:49:04;6.85;;;4.55;;
21591;SDS011;10958;50.892;3.992;2023-06-14T09:51:30;11.60;;;5.10;;
21591;SDS011;10958;50.892;3.992;2023-06-14T09:54:00;12.15;;;5.38;;
21591;SDS011;10958;50.892;3.992;2023-06-14T09:56:29;8.95;;;4.90;;
21591;SDS011;10958;50.892;3.992;2023-06-14T09:59:04;13.98;;;5.90;;
21591;SDS011;10958;50.892;3.992;2023-06-14T10:01:31;8.52;;;4.85;;
21591;SDS011;10958;50.892;3.992;2023-06-14T10:04:07;6.60;;;4.78;;
21591;SDS011;10958;50.892;3.992;2023-06-14T10:06:41;7.40;;;4.90;;
21591;SDS011;10958;50.892;3.992;2023-06-14T10:09:11;9.48;;;5.10;;
21591;SDS011;10958;50.892;3.992;2023-06-14T10:11:37;13.25;;;5.10;;
21591;SDS011;10958;50.892;3.992;2023-06-14T10:14:08;6.75;;;5.13;;
21591;SDS011;10958;50.892;3.992;2023-06-14T10:19:07;7.95;;;4.88;;
21591;SDS011;10958;50.892;3.992;2023-06-14T10:24:28;9.02;;;5.15;;
21591;SDS011;10958;50.892;3.992;2023-06-14T10:27:00;7.07;;;4.40;;
21591;SDS011;10958;50.892;3.992;2023-06-14T10:29:29;7.88;;;4.57;;
21591;SDS011;10958;50.892;3.992;2023-06-14T10:31:57;6.85;;;4.80;;
21591;SDS011;10958;50.892;3.992;2023-06-14T10:39:38;11.23;;;4.88;;
21591;SDS011;10958;50.892;3.992;2023-06-14T10:42:11;7.18;;;4.65;;
21591;SDS011;10958;50.892;3.992;2023-06-14T10:44:41;5.55;;;4.47;;
21591;SDS011;10958;50.892;3.992;2023-06-14T10:47:22;6.90;;;4.93;;
21591;SDS011;10958;50.892;3.992;2023-06-14T10:50:09;9.43;;;5.05;;
21591;SDS011;10958;50.892;3.992;2023-06-14T10:52:38;7.57;;;5.18;;
21591;SDS011;10958;50.892;3.992;2023-06-14T10:57:46;7.53;;;5.43;;
21591;SDS011;10958;50.892;3.992;2023-06-14T11:00:24;9.55;;;5.20;;
21591;SDS011;10958;50.892;3.992;2023-06-14T11:11:33;5.50;;;4.43;;
21591;SDS011;10958;50.892;3.992;2023-06-14T11:16:31;9.60;;;4.65;;
21591;SDS011;10958;50.892;3.992;2023-06-14T11:18:59;9.10;;;5.15;;
21591;SDS011;10958;50.892;3.992;2023-06-14T11:21:28;10.75;;;5.10;;
21591;SDS011;10958;50.892;3.992;2023-06-14T11:23:58;8.70;;;5.00;;
21591;SDS011;10958;50.892;3.992;2023-06-14T11:26:28;15.13;;;4.93;;
21591;SDS011;10958;50.892;3.992;2023-06-14T11:28:56;5.65;;;4.78;;
21591;SDS011;10958;50.892;3.992;2023-06-14T11:31:25;6.72;;;4.55;;
21591;SDS011;10958;50.892;3.992;2023-06-14T11:33:58;8.65;;;5.00;;
21591;SDS011;10958;50.892;3.992;2023-06-14T11:36:28;7.82;;;4.45;;
21591;SDS011;10958;50.892;3.992;2023-06-14T11:38:59;7.75;;;4.80;;
21591;SDS011;10958;50.892;3.992;2023-06-14T11:41:25;9.05;;;4.53;;
21591;SDS011;10958;50.892;3.992;2023-06-14T11:43:56;9.27;;;4.60;;
21591;SDS011;10958;50.892;3.992;2023-06-14T11:46:23;7.05;;;4.97;;
21591;SDS011;10958;50.892;3.992;2023-06-14T11:51:19;8.23;;;4.53;;
21591;SDS011;10958;50.892;3.992;2023-06-14T11:53:45;6.82;;;4.95;;
21591;SDS011;10958;50.892;3.992;2023-06-14T11:56:12;5.85;;;4.22;;
21591;SDS011;10958;50.892;3.992;2023-06-14T11:58:38;6.90;;;4.20;;
21591;SDS011;10958;50.892;3.992;2023-06-14T12:01:03;5.47;;;4.10;;
21591;SDS011;10958;50.892;3.992;2023-06-14T12:03:29;7.75;;;4.72;;
21591;SDS011;10958;50.892;3.992;2023-06-14T12:06:03;7.07;;;4.47;;
21591;SDS011;10958;50.892;3.992;2023-06-14T12:08:34;6.75;;;4.78;;
21591;SDS011;10958;50.892;3.992;2023-06-14T12:11:07;8.93;;;4.85;;
21591;SDS011;10958;50.892;3.992;2023-06-14T12:13:39;5.47;;;4.63;;
21591;SDS011;10958;50.892;3.992;2023-06-14T12:16:06;9.38;;;4.45;;
21591;SDS011;10958;50.892;3.992;2023-06-14T12:18:39;7.85;;;4.30;;
21591;SDS011;10958;50.892;3.992;2023-06-14T12:21:06;6.75;;;4.45;;
21591;SDS011;10958;50.892;3.992;2023-06-14T12:23:53;6.45;;;4.53;;
21591;SDS011;10958;50.892;3.992;2023-06-14T12:26:19;7.47;;;4.25;;
21591;SDS011;10958;50.892;3.992;2023-06-14T12:28:46;7.40;;;4.47;;
21591;SDS011;10958;50.892;3.992;2023-06-14T12:31:13;11.15;;;4.68;;
21591;SDS011;10958;50.892;3.992;2023-06-14T12:33:41;8.50;;;4.68;;
21591;SDS011;10958;50.892;3.992;2023-06-14T12:36:07;13.45;;;4.72;;
21591;SDS011;10958;50.892;3.992;2023-06-14T12:38:34;10.23;;;4.40;;
21591;SDS011;10958;50.892;3.992;2023-06-14T12:41:00;10.35;;;4.28;;
21591;SDS011;10958;50.892;3.992;2023-06-14T12:43:26;7.63;;;4.18;;
21591;SDS011;10958;50.892;3.992;2023-06-14T12:45:52;11.13;;;4.43;;
21591;SDS011;10958;50.892;3.992;2023-06-14T12:48:19;8.02;;;4.28;;
21591;SDS011;10958;50.892;3.992;2023-06-14T12:50:44;9.07;;;3.92;;
21591;SDS011;10958;50.892;3.992;2023-06-14T12:53:10;6.47;;;4.10;;
21591;SDS011;10958;50.892;3.992;2023-06-14T12:55:36;8.68;;;4.20;;
21591;SDS011;10958;50.892;3.992;2023-06-14T12:58:04;9.35;;;4.43;;
21591;SDS011;10958;50.892;3.992;2023-06-14T13:00:30;5.65;;;4.03;;
21591;SDS011;10958;50.892;3.992;2023-06-14T13:02:58;6.57;;;4.30;;
21591;SDS011;10958;50.892;3.992;2023-06-14T13:05:25;9.98;;;4.22;;
21591;SDS011;10958;50.892;3.992;2023-06-14T13:07:53;5.85;;;4.10;;
21591;SDS011;10958;50.892;3.992;2023-06-14T13:10:19;6.53;;;4.20;;
21591;SDS011;10958;50.892;3.992;2023-06-14T13:14:48;7.70;;;4.38;;
21591;SDS011;10958;50.892;3.992;2023-06-14T13:17:14;8.50;;;4.43;;
21591;SDS011;10958;50.892;3.992;2023-06-14T13:19:40;9.15;;;4.28;;
21591;SDS011;10958;50.892;3.992;2023-06-14T13:22:07;7.72;;;4.40;;
21591;SDS011;10958;50.892;3.992;2023-06-14T13:24:33;8.80;;;4.30;;
21591;SDS011;10958;50.892;3.992;2023-06-14T13:26:59;5.00;;;4.00;;
21591;SDS011;10958;50.892;3.992;2023-06-14T13:29:27;5.57;;;4.47;;
21591;SDS011;10958;50.892;3.992;2023-06-14T13:34:22;6.80;;;4.25;;
21591;SDS011;10958;50.892;3.992;2023-06-14T13:36:48;7.15;;;4.00;;
21591;SDS011;10958;50.892;3.992;2023-06-14T13:39:15;9.90;;;3.80;;
21591;SDS011;10958;50.892;3.992;2023-06-14T13:41:41;10.35;;;4.10;;
21591;SDS011;10958;50.892;3.992;2023-06-14T13:44:06;7.88;;;4.03;;
21591;SDS011;10958;50.892;3.992;2023-06-14T13:46:33;7.20;;;4.03;;
21591;SDS011;10958;50.892;3.992;2023-06-14T13:49:01;9.82;;;3.95;;
21591;SDS011;10958;50.892;3.992;2023-06-14T13:51:27;8.70;;;3.97;;
21591;SDS011;10958;50.892;3.992;2023-06-14T13:53:53;4.72;;;3.58;;
21591;SDS011;10958;50.892;3.992;2023-06-14T13:56:20;6.60;;;3.80;;
21591;SDS011;10958;50.892;3.992;2023-06-14T13:58:47;5.25;;;3.70;;
21591;SDS011;10958;50.892;3.992;2023-06-14T14:01:13;7.32;;;3.58;;
21591;SDS011;10958;50.892;3.992;2023-06-14T14:03:39;6.15;;;3.78;;
21591;SDS011;10958;50.892;3.992;2023-06-14T14:06:05;6.07;;;3.45;;
21591;SDS011;10958;50.892;3.992;2023-06-14T14:08:32;5.53;;;3.65;;
21591;SDS011;10958;50.892;3.992;2023-06-14T14:10:58;7.78;;;3.88;;
21591;SDS011;10958;50.892;3.992;2023-06-14T14:13:23;9.05;;;3.38;;
21591;SDS011;10958;50.892;3.992;2023-06-14T14:15:50;7.93;;;4.13;;
21591;SDS011;10958;50.892;3.992;2023-06-14T14:18:15;5.70;;;3.53;;
21591;SDS011;10958;50.892;3.992;2023-06-14T14:20:41;10.82;;;3.30;;
21591;SDS011;10958;50.892;3.992;2023-06-14T14:23:09;5.60;;;3.33;;
21591;SDS011;10958;50.892;3.992;2023-06-14T14:25:35;3.50;;;3.20;;
21591;SDS011;10958;50.892;3.992;2023-06-14T14:28:03;9.18;;;3.97;;
21591;SDS011;10958;50.892;3.992;2023-06-14T14:30:29;7.10;;;3.97;;
21591;SDS011;10958;50.892;3.992;2023-06-14T14:32:56;7.65;;;3.50;;
21591;SDS011;10958;50.892;3.992;2023-06-14T14:35:21;4.00;;;3.33;;
21591;SDS011;10958;50.892;3.992;2023-06-14T14:37:49;6.03;;;3.20;;
21591;SDS011;10958;50.892;3.992;2023-06-14T14:40:15;5.07;;;3.65;;
21591;SDS011;10958;50.892;3.992;2023-06-14T14:42:41;4.13;;;3.30;;
21591;SDS011;10958;50.892;3.992;2023-06-14T14:45:08;6.72;;;3.30;;
21591;SDS011;10958;50.892;3.992;2023-06-14T14:47:34;3.97;;;3.13;;
21591;SDS011;10958;50.892;3.992;2023-06-14T14:49:59;6.32;;;3.15;;
21591;SDS011;10958;50.892;3.992;2023-06-14T14:52:28;4.97;;;3.00;;
21591;SDS011;10958;50.892;3.992;2023-06-14T14:54:54;6.32;;;3.30;;
21591;SDS011;10958;50.892;3.992;2023-06-14T14:57:21;5.85;;;3.00;;
21591;SDS011;10958;50.892;3.992;2023-06-14T14:59:46;4.30;;;3.00;;
21591;SDS011;10958;50.892;3.992;2023-06-14T15:02:12;3.58;;;2.70;;
21591;SDS011;10958;50.892;3.992;2023-06-14T15:04:40;5.37;;;2.50;;
21591;SDS011;10958;50.892;3.992;2023-06-14T15:07:05;5.05;;;2.63;;
21591;SDS011;10958;50.892;3.992;2023-06-14T15:09:33;4.85;;;2.72;;
21591;SDS011;10958;50.892;3.992;2023-06-14T15:11:59;3.45;;;2.40;;
21591;SDS011;10958;50.892;3.992;2023-06-14T15:14:25;4.53;;;2.78;;
21591;SDS011;10958;50.892;3.992;2023-06-14T15:16:50;3.80;;;2.33;;
21591;SDS011;10958;50.892;3.992;2023-06-14T15:19:20;2.83;;;2.20;;
21591;SDS011;10958;50.892;3.992;2023-06-14T15:21:45;3.10;;;2.15;;
21591;SDS011;10958;50.892;3.992;2023-06-14T15:24:25;4.30;;;1.80;;
21591;SDS011;10958;50.892;3.992;2023-06-14T15:26:55;2.63;;;1.88;;
21591;SDS011;10958;50.892;3.992;2023-06-14T15:29:21;1.70;;;1.60;;
21591;SDS011;10958;50.892;3.992;2023-06-14T15:31:47;6.22;;;1.70;;